ESGR

Details ICAO ESGR (KVB)
Name SKOVDE
Region Sweden
Timezone Europe/Stockholm (UTC+1.0)
Plans Departing 1
Arriving 6
Stats Elevation 324 ft / 99 m (AMSL)
Location 58.456379° 13.972632°
Runways 1
Magnetic Variation 4.412° E
Sunrise 2017-12-11 07:44:29 UTC / 2017-12-11 08:44:29 Local
Sunset 2017-12-11 14:13:07 UTC / 2017-12-11 15:13:07 Local
Advertisement - Login to hide

Runways

ID Width Length Bearing (true) Bearing (mag) Surface Threshold Offset Overrun Length
01 98 ft / 30 m 5,686 ft / 1,733 m 15.68° 11.27° Asphalt 0 ft / 0 m 80 ft / 24 m
19 98 ft / 30 m 5,686 ft / 1,733 m 195.69° 191.28° Asphalt 0 ft / 0 m 80 ft / 24 m

Approach Navaids

Runway Type Ident Frequency Range Bearing (true) Bearing (mag) Slope Elevation
19 Localiser SY 108.30 MHz 18 nm / 33 km 195.71° 191.30° - 324 ft / 99 m (AMSL)
19 Glidescope SY 108.30 MHz 10 nm / 19 km 195.68° 191.27° 3.00° 324 ft / 99 m (AMSL)
19 DME SY 108.30 MHz 18 nm / 33 km - - - 328 ft / 100 m (AMSL)

Map

Weather


0- 5 10 15 20 25 30 35+ Temperature / ° C

Clouds and Precipitation
Forecast for 2017-12-12 00:00 UTC. Updated 2 hours ago

Ground ~20,000 ft ~40,000 ft Winds

METAR

ESGR 112020Z AUTO 04009KT 9999 FZUP OVC009/// M00/M01 Q0992

TAF

Not found

Frequencies

Tower 122.32 MHz AFIS
Warning: Do not use this data for real-world aviation or navigation. No guarantee of current accuracy is given.